Time;durP1;ratioP1;P1;durP2;ratioP2;P2;SDS_P1;SDS_P2;PMS_P1;PMS_P2;Temp;Humidity;BMP_temperature;BMP_pressure;BME280_temperature;BME280_humidity;BME280_pressure;Samples;Min_cycle;Max_cycle;Signal;HPM_P1;HPM_P2
2022/12/06 00:00:42;;;;;;;8.18;5.78;;;;;;;3.70;88.53;100998.78;5053713;28;20044;-78
2022/12/06 00:03:50;;;;;;;9.55;6.50;;;;;;;3.87;88.09;100996.81;5053496;28;20475;-78
2022/12/06 00:06:53;;;;;;;8.40;5.85;;;;;;;3.89;87.59;100996.75;5053696;28;20106;-78
2022/12/06 00:09:58;;;;;;;10.65;7.95;;;;;;;3.78;86.98;100993.50;5053084;28;20075;-78
2022/12/06 00:13:03;;;;;;;9.45;6.97;;;;;;;3.72;86.36;100986.72;5053844;28;20048;-78
2022/12/06 00:16:10;;;;;;;8.20;6.53;;;;;;;3.89;86.88;100992.47;5053686;28;20568;-78
2022/12/06 00:19:16;;;;;;;9.10;6.88;;;;;;;3.89;86.11;100978.66;5053381;28;20468;-78
2022/12/06 00:22:19;;;;;;;10.43;6.88;;;;;;;3.81;87.07;100988.28;5053386;28;20099;-78
2022/12/06 00:25:22;;;;;;;8.52;5.93;;;;;;;3.65;88.74;100987.69;5053337;28;20044;-78
2022/12/06 00:28:26;;;;;;;9.45;6.95;;;;;;;3.91;87.38;100984.66;5053199;28;20551;-78
2022/12/06 00:31:31;;;;;;;7.43;5.93;;;;;;;3.66;88.65;100991.97;5053149;28;20097;-79
2022/12/06 00:34:35;;;;;;;7.20;5.25;;;;;;;3.86;88.45;100982.16;5053033;28;20120;-79
2022/12/06 00:37:38;;;;;;;9.50;6.65;;;;;;;3.96;87.10;100978.53;5053032;28;20040;-79
2022/12/06 00:40:41;;;;;;;10.02;7.53;;;;;;;3.90;87.45;100978.63;5053139;28;20502;-78
2022/12/06 00:43:45;;;;;;;11.27;7.93;;;;;;;3.76;88.42;100979.75;5053051;28;20048;-78
2022/12/06 00:46:48;;;;;;;10.30;7.70;;;;;;;3.95;86.83;100974.22;5052279;28;20052;-79
2022/12/06 00:49:53;;;;;;;9.77;6.47;;;;;;;3.70;88.53;100973.81;5052741;28;20048;-79
2022/12/06 00:52:56;;;;;;;10.02;6.28;;;;;;;3.81;88.34;100971.03;5051915;28;20040;-79
2022/12/06 00:55:59;;;;;;;;;;;;;;;3.69;88.73;100968.66;5053110;28;20438;-79
2022/12/06 00:59:04;;;;;;;14.88;5.82;;;;;;;3.57;88.80;100972.28;5052839;28;19939;-79
2022/12/06 01:02:08;;;;;;;8.93;6.22;;;;;;;3.84;88.01;100958.06;5052479;28;20409;-79
2022/12/06 01:05:11;;;;;;;8.82;6.13;;;;;;;3.83;88.22;100965.81;5052409;28;20052;-78
2022/12/06 01:08:17;;;;;;;8.48;6.35;;;;;;;3.94;87.23;100959.59;5052504;28;20099;-79
2022/12/06 01:11:21;;;;;;;8.98;6.65;;;;;;;3.64;87.94;100965.31;5052517;28;20040;-79
2022/12/06 01:14:25;;;;;;;12.90;6.75;;;;;;;3.62;86.76;100962.72;5052416;28;20099;-78
2022/12/06 01:17:28;;;;;;;10.10;7.05;;;;;;;3.75;85.50;100972.88;5052290;28;20175;-79
2022/12/06 01:20:33;;;;;;;8.00;6.45;;;;;;;3.25;85.47;100972.78;5052560;28;20052;-79
2022/12/06 01:23:37;;;;;;;9.20;6.93;;;;;;;3.48;85.14;100981.06;5052284;28;20048;-79
2022/12/06 01:26:40;;;;;;;11.05;7.93;;;;;;;3.55;85.11;100980.97;5052042;28;20047;-79
2022/12/06 01:29:45;;;;;;;9.75;7.22;;;;;;;3.46;85.79;100976.78;5052152;28;20043;-78
2022/12/06 01:32:49;;;;;;;10.88;7.20;;;;;;;3.23;86.43;100965.06;5052066;28;20040;-78
2022/12/06 01:35:59;;;;;;;8.63;6.45;;;;;;;3.38;86.33;100969.16;5052396;28;20606;-78
2022/12/06 01:39:05;;;;;;;8.23;6.18;;;;;;;3.46;86.02;100972.47;5052253;28;20570;-78
2022/12/06 01:42:10;;;;;;;8.57;6.18;;;;;;;3.60;86.31;100972.22;5051932;28;20048;-78
2022/12/06 01:45:15;;;;;;;8.07;6.03;;;;;;;3.69;86.67;100968.66;5051890;28;20059;-78
2022/12/06 01:48:19;;;;;;;9.40;5.78;;;;;;;3.68;86.96;100974.72;5052199;28;20127;-78
2022/12/06 01:51:23;;;;;;;8.57;6.30;;;;;;;3.72;86.25;100968.59;5052192;28;20087;-78
2022/12/06 01:54:29;;;;;;;9.23;6.38;;;;;;;3.72;86.90;100973.78;5052348;28;20091;-78
2022/12/06 01:57:38;;;;;;;8.60;6.88;;;;;;;3.79;85.49;100970.19;5051368;28;20410;-78
2022/12/06 02:00:44;;;;;;;7.10;5.72;;;;;;;3.85;85.51;100971.81;5051699;28;20075;-78
2022/12/06 02:03:47;;;;;;;9.38;7.28;;;;;;;3.84;84.78;100963.22;5051840;28;20468;-78
2022/12/06 02:06:52;;;;;;;;;;;;;;;3.78;83.85;100968.50;5052347;28;20086;-78
2022/12/06 02:09:56;;;;;;;8.18;6.75;;;;;;;3.69;84.56;100964.31;5041884;28;19967;-78
2022/12/06 02:12:59;;;;;;;;;;;;;;;3.82;84.14;100975.31;5032221;28;20080;-78
2022/12/06 02:16:17;;;;;;;9.38;7.38;;;;;;;3.59;83.72;100967.94;5031606;28;20285;-78
2022/12/06 02:19:42;;;;;;;9.02;6.97;;;;;;;3.39;84.33;100970.88;5031962;28;20114;-77
2022/12/06 02:22:46;;;;;;;8.70;6.97;;;;;;;3.47;85.13;100973.31;5035741;28;20036;-78
2022/12/06 02:25:49;;;;;;;;;;;;;;;3.49;85.09;100969.00;5036185;28;20052;-77
2022/12/06 02:29:01;;;;;;;9.15;6.85;;;;;;;3.61;84.69;100970.53;5035563;28;19920;-78
2022/12/06 02:32:10;;;;;;;9.93;7.63;;;;;;;3.90;84.49;100964.84;5035612;28;20188;-78
2022/12/06 02:35:33;;;;;;;10.05;7.28;;;;;;;3.82;84.45;100964.13;5035541;28;20045;-79
2022/12/06 02:38:50;;;;;;;10.93;6.57;;;;;;;3.67;85.04;100963.53;5035430;28;20088;-79
2022/12/06 02:42:08;;;;;;;10.52;6.95;;;;;;;3.78;84.80;100965.06;5034504;28;20719;-78
2022/12/06 02:45:16;;;;;;;9.50;7.43;;;;;;;3.83;85.07;100956.34;5035381;28;20056;-78
2022/12/06 02:48:22;;;;;;;9.55;7.43;;;;;;;3.88;84.71;100949.34;5035463;28;20061;-78
2022/12/06 02:51:28;;;;;;;10.35;8.02;;;;;;;3.80;85.50;100956.41;5035234;28;20505;-78
2022/12/06 02:54:32;;;;;;;11.73;8.30;;;;;;;3.49;86.15;100953.47;5034962;28;20045;-78
2022/12/06 02:57:45;;;;;;;;;;;;;;;3.58;86.19;100947.31;5034272;28;20057;-78
2022/12/06 03:00:53;;;;;;;10.65;8.63;;;;;;;3.69;86.15;100953.13;5032688;28;20434;-78
2022/12/06 03:04:09;;;;;;;11.57;8.15;;;;;;;3.76;86.18;100938.34;5033588;28;20052;-78
2022/12/06 03:07:34;;;;;;;11.63;9.02;;;;;;;3.74;86.00;100941.00;5032636;28;20095;-78
2022/12/06 03:10:47;;;;;;;13.23;8.70;;;;;;;3.74;85.36;100941.00;5033985;28;20072;-78
2022/12/06 03:13:55;;;;;;;9.45;7.60;;;;;;;3.63;86.98;100945.47;5034577;28;20045;-78
2022/12/06 03:17:14;;;;;;;11.43;7.88;;;;;;;3.61;86.93;100945.53;5034941;28;20115;-78
2022/12/06 03:20:27;;;;;;;10.57;8.48;;;;;;;3.64;86.27;100945.47;5034599;28;20125;-78
2022/12/06 03:23:36;;;;;;;9.65;8.40;;;;;;;3.82;86.42;100936.53;5034581;28;20104;-77
2022/12/06 03:26:42;;;;;;;11.05;8.23;;;;;;;3.75;87.27;100934.94;5034443;28;20043;-77
2022/12/06 03:29:59;;;;;;;10.15;8.27;;;;;;;3.80;86.87;100930.53;5034705;28;20056;-77
2022/12/06 03:33:04;;;;;;;10.13;7.95;;;;;;;3.76;86.78;100928.00;5033437;28;20522;-78
2022/12/06 03:36:09;;;;;;;11.70;7.85;;;;;;;3.65;87.74;100923.03;5034331;28;20044;-78
2022/12/06 03:39:18;;;;;;;8.98;7.15;;;;;;;3.61;88.25;100929.16;5033736;28;20519;-78
2022/12/06 03:42:23;;;;;;;11.52;7.68;;;;;;;3.74;87.76;100928.06;5034067;28;20053;-78
2022/12/06 03:45:35;;;;;;;9.73;8.43;;;;;;;3.89;86.89;100920.03;5034167;28;20040;-78
2022/12/06 03:48:45;;;;;;;10.23;8.38;;;;;;;3.79;86.33;100918.47;5034089;28;20048;-78
2022/12/06 03:51:49;;;;;;;10.05;8.35;;;;;;;3.68;86.39;100916.09;5044792;28;20102;-78
2022/12/06 03:54:52;;;;;;;9.98;8.25;;;;;;;3.53;87.68;100913.75;5034240;28;20110;-78
2022/12/06 03:57:56;;;;;;;11.10;8.13;;;;;;;3.67;87.16;100918.69;5033942;28;20130;-78
2022/12/06 04:01:03;;;;;;;10.65;8.55;;;;;;;3.67;86.28;100909.22;5034051;28;20071;-77
2022/12/06 04:04:08;;;;;;;9.65;7.63;;;;;;;3.77;86.34;100914.22;5033748;28;20564;-78
2022/12/06 04:07:13;;;;;;;12.10;7.35;;;;;;;3.74;85.93;100907.38;5033790;28;20048;-78
2022/12/06 04:10:16;;;;;;;10.32;8.38;;;;;;;3.74;85.90;100907.38;5033786;28;20138;-78
2022/12/06 04:13:20;;;;;;;10.20;9.10;;;;;;;3.82;85.89;100896.88;5033637;28;20072;-78
2022/12/06 04:19:45;;;;;;;11.88;8.13;;;;;;;3.54;85.79;100899.09;5033575;28;20052;-76
2022/12/06 04:23:04;;;;;;;10.10;8.23;;;;;;;3.31;85.62;100904.66;5033572;28;20084;-76
2022/12/06 04:26:11;;;;;;;13.02;9.52;;;;;;;3.48;85.73;100908.69;5033393;28;20052;-77
2022/12/06 04:39:20;;;;;;;11.50;8.45;;;;;;;3.47;85.98;100900.94;5033175;28;20140;-77
2022/12/06 04:45:46;;;;;;;10.05;7.82;;;;;;;3.11;86.80;100899.81;5033048;28;20427;-78
2022/12/06 04:48:50;;;;;;;8.52;6.43;;;;;;;3.31;86.95;100902.91;5032925;28;20083;-78
2022/12/06 04:51:54;;;;;;;;;;;;;;;3.32;86.98;100902.06;5033530;28;20131;-78
2022/12/06 04:54:58;;;;;;;8.50;6.55;;;;;;;3.35;86.60;100902.00;5032832;28;19959;-77
2022/12/06 04:58:02;;;;;;;8.95;7.45;;;;;;;3.49;85.30;100889.69;5032848;28;20412;-75
2022/12/06 05:01:05;;;;;;;7.43;6.07;;;;;;;3.62;85.15;100892.91;5032847;28;20047;-74
2022/12/06 05:04:08;;;;;;;8.48;6.68;;;;;;;3.64;84.94;100888.56;5032707;28;20119;-75
2022/12/06 05:07:13;;;;;;;8.88;7.07;;;;;;;3.51;85.50;100894.84;5032123;28;20056;-74
2022/12/06 05:10:16;;;;;;;10.20;7.63;;;;;;;3.62;85.57;100895.50;5032841;28;20048;-74
2022/12/06 05:13:20;;;;;;;;;;;;;;;3.69;85.58;100888.47;5033180;28;20052;-73
2022/12/06 05:16:23;;;;;;;8.98;6.70;;;;;;;3.67;85.32;100892.81;5032497;28;19920;-73
2022/12/06 05:19:27;;;;;;;7.80;6.35;;;;;;;3.72;85.23;100896.19;5032462;28;20055;-73
2022/12/06 05:22:32;;;;;;;7.45;5.82;;;;;;;3.73;85.42;100888.41;5041860;28;20558;-72
2022/12/06 05:25:36;;;;;;;9.93;6.00;;;;;;;3.58;85.98;100893.00;5027636;28;20052;-73
2022/12/06 05:28:39;;;;;;;;;;;;;;;3.65;86.11;100892.00;5030981;28;20067;-77
2022/12/06 05:31:44;;;;;;;9.13;5.68;;;;;;;3.62;85.75;100897.22;5046829;28;19963;-73
2022/12/06 05:34:47;;;;;;;7.78;5.47;;;;;;;3.58;85.94;100893.00;5048395;28;20048;-74
2022/12/06 05:37:52;;;;;;;6.82;5.53;;;;;;;3.84;85.54;100890.78;5046223;28;20052;-74
2022/12/06 05:41:53;;;;;;;8.20;5.40;;;;;;;3.76;85.81;100896.97;5046865;28;20044;-74
2022/12/06 05:45:00;;;;;;;6.40;5.07;;;;;;;3.70;86.12;100897.94;5033058;28;20098;-76
2022/12/06 05:48:05;;;;;;;6.53;5.05;;;;;;;3.53;86.43;100899.97;5046739;28;20082;-75
2022/12/06 05:51:08;;;;;;;6.72;5.35;;;;;;;3.56;86.83;100900.78;5025541;28;20040;-75
2022/12/06 05:54:16;;;;;;;6.20;4.50;;;;;;;3.64;86.25;100903.25;5025925;28;20245;-77
2022/12/06 05:57:38;;;;;;;5.85;4.28;;;;;;;3.62;86.53;100905.00;5025498;28;20061;-74
2022/12/06 06:00:46;;;;;;;6.20;4.32;;;;;;;3.68;85.89;100899.72;5025509;28;20478;-77
2022/12/06 06:03:52;;;;;;;5.47;4.20;;;;;;;3.77;86.36;100899.56;5041454;28;20477;-74
2022/12/06 06:06:58;;;;;;;6.20;4.20;;;;;;;3.89;86.62;100903.63;5044257;28;20113;-76
2022/12/06 06:10:01;;;;;;;9.43;4.25;;;;;;;3.70;87.25;100897.94;5047340;28;20055;-78
2022/12/06 06:13:04;;;;;;;6.20;4.32;;;;;;;3.62;86.37;100894.66;5047140;28;20105;-75
2022/12/06 06:16:07;;;;;;;5.43;4.07;;;;;;;3.91;85.82;100897.56;5046672;28;20071;-75
2022/12/06 06:19:11;;;;;;;5.90;4.15;;;;;;;3.64;85.01;100903.25;5035263;28;20040;-75
2022/12/06 06:22:14;;;;;;;7.43;5.78;;;;;;;3.59;85.90;100895.56;5026618;28;20048;-75
2022/12/06 06:25:18;;;;;;;5.95;4.50;;;;;;;3.54;86.20;100901.66;5027313;28;20417;-75
2022/12/06 06:28:22;;;;;;;6.90;4.75;;;;;;;3.38;86.60;100899.38;5027714;28;20052;-75
2022/12/06 06:31:26;;;;;;;7.50;4.40;;;;;;;3.56;86.83;100894.75;5035206;28;20466;-75
2022/12/06 06:34:30;;;;;;;6.75;4.85;;;;;;;3.68;86.96;100902.31;5025923;28;20474;-75
2022/12/06 06:37:34;;;;;;;6.00;4.65;;;;;;;3.58;87.25;100900.75;5026308;28;20057;-75
2022/12/06 06:40:38;;;;;;;6.47;4.65;;;;;;;3.65;87.47;100908.38;5025311;28;20095;-75
2022/12/06 06:43:41;;;;;;;;;;;;;;;3.48;87.76;100913.00;5026929;28;20104;-75
2022/12/06 06:46:44;;;;;;;8.00;4.65;;;;;;;3.60;87.59;100904.16;5032430;28;19919;-75
2022/12/06 06:49:48;;;;;;;6.68;5.00;;;;;;;3.72;87.72;100909.13;5046815;28;20770;-75
2022/12/06 06:52:51;;;;;;;8.20;5.05;;;;;;;3.73;87.36;100913.41;5046453;28;20052;-75
2022/12/06 06:55:55;;;;;;;;;;;;;;;3.17;88.96;100925.56;5046864;28;20071;-75
2022/12/06 06:58:58;;;;;;;6.05;4.90;;;;;;;3.03;89.13;100928.31;5046369;28;19939;-74
2022/12/06 07:02:02;;;;;;;7.03;5.05;;;;;;;3.24;88.58;100929.75;5033809;28;20090;-75
2022/12/06 07:05:06;;;;;;;8.32;5.32;;;;;;;3.11;88.28;100928.22;5027069;28;20621;-75
2022/12/06 07:08:10;;;;;;;7.45;5.03;;;;;;;2.86;89.52;100925.16;5030572;28;20048;-74
2022/12/06 07:11:14;;;;;;;;;;;;;;;3.26;89.04;100920.25;5030489;28;20415;-74
2022/12/06 07:14:17;;;;;;;6.85;4.88;;;;;;;3.09;88.31;100929.97;5029639;28;19959;-75
2022/12/06 07:17:21;;;;;;;8.68;6.75;;;;;;;2.79;90.18;100924.38;5029933;28;20096;-75
2022/12/06 07:20:24;;;;;;;15.85;10.38;;;;;;;2.82;90.41;100920.91;5029257;28;20056;-74
2022/12/06 07:23:27;;;;;;;12.32;8.07;;;;;;;2.92;90.20;100933.66;5028191;28;20175;-74
2022/12/06 07:26:31;;;;;;;18.30;12.20;;;;;;;3.08;90.31;100934.28;5029375;28;20305;-75
2022/12/06 07:29:35;;;;;;;20.25;11.55;;;;;;;3.21;89.28;100935.81;5028830;28;20076;-75
2022/12/06 07:32:38;;;;;;;;;;;;;;;3.10;89.69;100934.28;5030117;28;20110;-75
2022/12/06 07:35:43;;;;;;;16.47;8.70;;;;;;;3.07;90.09;100931.75;5028960;28;20337;-74
2022/12/06 07:38:48;;;;;;;34.70;12.98;;;;;;;2.87;90.85;100930.31;5039822;28;20044;-75
2022/12/06 07:45:25;;;;;;;29.67;16.05;;;;;;;3.12;89.91;100925.59;5040783;28;20501;-75
2022/12/06 07:48:28;;;;;;;;;;;;;;;3.17;89.77;100933.31;5044347;28;20402;-71
2022/12/06 07:51:33;;;;;;;24.20;13.98;;;;;;;3.46;91.46;100928.53;5036230;28;19919;-73
2022/12/06 07:54:36;;;;;;;15.55;9.32;;;;;;;3.56;89.75;100929.22;5042509;28;20040;-74
2022/12/06 07:57:40;;;;;;;10.75;7.78;;;;;;;3.71;88.89;100920.34;5042609;28;20513;-75
2022/12/06 08:00:43;;;;;;;9.55;5.95;;;;;;;3.44;88.62;100917.34;5054094;28;20083;-74
2022/12/06 08:03:49;;;;;;;16.52;8.05;;;;;;;3.40;89.28;100920.00;5048316;28;20529;-75
2022/12/06 08:06:53;;;;;;;15.20;8.65;;;;;;;3.42;88.91;100923.44;5053253;28;20570;-75
2022/12/06 08:09:56;;;;;;;9.75;8.15;;;;;;;3.53;89.05;100924.09;5047089;28;20051;-75
2022/12/06 08:13:01;;;;;;;9.43;7.40;;;;;;;3.68;88.31;100915.22;5044008;28;20063;-76
2022/12/06 08:16:07;;;;;;;11.27;6.88;;;;;;;3.83;87.35;100914.09;5035997;28;20048;-75
2022/12/06 08:19:10;;;;;;;14.18;8.25;;;;;;;3.74;87.02;100915.13;5032047;28;20067;-75
2022/12/06 08:22:14;;;;;;;;;;;;;;;4.06;86.07;100918.84;5033109;28;20415;-75
2022/12/06 08:25:17;;;;;;;9.18;6.22;;;;;;;3.31;88.65;100920.16;5032805;28;19920;-73
2022/12/06 08:28:21;;;;;;;;;;;;;;;3.30;88.99;100923.63;5033857;28;20091;-74
2022/12/06 08:31:24;;;;;;;18.52;11.15;;;;;;;3.81;87.53;100921.03;5033268;28;20004;-74
2022/12/06 08:34:27;;;;;;;9.00;6.50;;;;;;;3.82;86.87;100922.72;5033151;28;20099;-74
2022/12/06 08:37:33;;;;;;;9.20;6.00;;;;;;;3.97;86.66;100928.47;5033483;28;20518;-73
2022/12/06 08:40:36;;;;;;;6.72;4.68;;;;;;;3.78;86.76;100921.09;5031931;28;20084;-74
2022/12/06 08:43:41;;;;;;;;;;;;;;;3.83;86.53;100924.44;5033208;28;20423;-74
2022/12/06 08:46:45;;;;;;;6.55;4.30;;;;;;;3.99;86.33;100930.19;5032811;28;19967;-74
2022/12/06 08:49:49;;;;;;;8.07;5.80;;;;;;;4.18;85.92;100931.56;5038728;28;20048;-73
2022/12/06 08:52:53;;;;;;;8.02;6.00;;;;;;;4.11;86.03;100930.81;5039792;28;20041;-73
2022/12/06 08:55:56;;;;;;;9.48;6.47;;;;;;;4.40;84.76;100931.97;5032988;28;20071;-73
2022/12/06 08:59:00;;;;;;;8.27;6.70;;;;;;;4.45;84.65;100929.28;5032971;28;20466;-74
2022/12/06 09:02:04;;;;;;;9.90;7.20;;;;;;;4.25;85.01;100940.91;5032176;28;20048;-73
2022/12/06 09:05:07;;;;;;;14.45;10.52;;;;;;;3.95;86.42;100940.59;5031744;28;20576;-76
2022/12/06 09:08:11;;;;;;;10.60;8.45;;;;;;;3.82;89.96;100944.28;5032616;28;20569;-76
2022/12/06 09:11:18;;;;;;;14.73;10.65;;;;;;;3.68;88.83;100946.25;5032170;28;20470;-75
2022/12/06 09:14:21;;;;;;;19.33;13.07;;;;;;;3.65;88.75;100952.34;5032355;28;20050;-75
2022/12/06 09:17:26;;;;;;;15.93;11.65;;;;;;;3.59;88.93;100952.44;5032158;28;20410;-74
2022/12/06 09:20:30;;;;;;;14.85;11.45;;;;;;;3.54;88.81;100951.66;5032208;28;20075;-75
2022/12/06 09:23:35;;;;;;;13.38;10.65;;;;;;;3.73;89.00;100959.94;5032492;28;20044;-75
2022/12/06 09:26:39;;;;;;;12.90;8.30;;;;;;;3.66;88.78;100960.94;5032224;28;20044;-74
2022/12/06 09:29:43;;;;;;;13.63;8.05;;;;;;;3.57;88.89;100968.84;5032207;28;20061;-74
2022/12/06 09:32:47;;;;;;;9.57;6.80;;;;;;;3.71;88.14;100966.91;5031204;28;20091;-74
2022/12/06 09:35:52;;;;;;;10.50;8.05;;;;;;;3.85;88.13;100974.41;5032284;28;20083;-74
2022/12/06 09:39:26;;;;;;;10.45;7.07;;;;;;;3.60;88.95;100979.16;5032211;28;20770;-75
2022/12/06 09:42:47;;;;;;;10.35;7.47;;;;;;;3.41;89.79;100979.44;5031902;28;20075;-74
2022/12/06 09:46:21;;;;;;;13.40;7.43;;;;;;;3.62;89.67;100982.56;5031808;28;20133;-74
2022/12/06 09:49:37;;;;;;;11.80;7.63;;;;;;;3.64;90.21;100981.66;5031785;28;20048;-74
2022/12/06 09:53:25;;;;;;;12.10;7.90;;;;;;;3.94;89.02;100969.94;5044095;28;20071;-74
2022/12/06 09:56:48;;;;;;;14.52;8.85;;;;;;;3.69;89.89;100968.66;5034801;28;20071;-74
2022/12/06 10:00:08;;;;;;;10.65;8.10;;;;;;;3.97;88.94;100969.88;5036771;28;20135;-75
2022/12/06 10:03:20;;;;;;;14.15;9.93;;;;;;;3.70;89.75;100970.34;5042079;28;20542;-76
2022/12/06 10:06:36;;;;;;;39.20;23.15;;;;;;;3.49;90.99;100969.00;5041045;28;20047;-75
2022/12/06 10:09:59;;;;;;;26.25;17.30;;;;;;;3.61;91.07;100970.53;5040975;28;20688;-75
2022/12/06 10:13:14;;;;;;;18.95;13.13;;;;;;;3.80;90.46;100965.88;5043338;28;20094;-75
2022/12/06 10:16:30;;;;;;;34.97;24.77;;;;;;;3.82;90.37;100975.31;5038418;28;20498;-75
2022/12/06 10:20:10;;;;;;;14.23;9.70;;;;;;;3.64;91.42;100965.31;5038640;28;20072;-75
2022/12/06 10:23:48;;;;;;;15.38;10.30;;;;;;;3.33;92.69;100972.69;5039106;28;20407;-75
2022/12/06 10:26:54;;;;;;;16.58;11.48;;;;;;;3.50;92.34;100962.94;5033401;28;20056;-76
2022/12/06 10:30:04;;;;;;;21.35;17.33;;;;;;;3.61;92.10;100957.59;5030946;28;20060;-76
2022/12/06 10:33:31;;;;;;;15.43;11.20;;;;;;;3.44;92.33;100974.22;5030736;28;20102;-77
2022/12/06 10:36:51;;;;;;;13.38;9.95;;;;;;;3.85;90.67;100964.91;5030845;28;20076;-75
2022/12/06 10:39:57;;;;;;;14.75;10.20;;;;;;;3.58;91.88;100957.66;5032169;28;20048;-76
2022/12/06 10:43:16;;;;;;;14.45;11.13;;;;;;;3.57;92.05;100958.50;5044227;28;20515;-76
2022/12/06 10:49:48;;;;;;;13.30;9.50;;;;;;;3.65;92.55;100954.06;5034294;28;20494;-73
2022/12/06 10:52:58;;;;;;;16.92;9.50;;;;;;;3.84;91.66;100950.28;5034212;28;20048;-74
2022/12/06 10:56:13;;;;;;;15.25;10.05;;;;;;;3.81;91.96;100946.91;5034242;28;20107;-73
2022/12/06 10:59:30;;;;;;;23.42;16.42;;;;;;;4.03;90.56;100944.78;5034088;28;20435;-74
2022/12/06 11:03:01;;;;;;;34.70;22.02;;;;;;;3.77;91.20;100937.50;5034001;28;20044;-74
2022/12/06 11:06:11;;;;;;;26.55;16.45;;;;;;;4.16;90.22;100933.31;5033818;28;20052;-74
2022/12/06 11:09:37;;;;;;;24.30;15.52;;;;;;;4.28;89.50;100933.09;5038779;28;20501;-73
2022/12/06 11:12:43;;;;;;;32.10;20.77;;;;;;;4.33;88.39;100931.25;5036707;28;20047;-74
2022/12/06 11:16:38;;;;;;;21.88;13.68;;;;;;;4.41;88.68;100931.94;5046435;28;20059;-74
2022/12/06 11:19:44;;;;;;;;;;;;;;;4.55;87.81;100928.22;5027370;28;20087;-75
2022/12/06 11:23:05;;;;;;;14.07;10.00;;;;;;;4.57;87.76;100922.13;5028408;28;19927;-75
2022/12/06 11:26:42;;;;;;;14.50;9.73;;;;;;;4.63;87.47;100923.75;5039678;28;20074;-74
2022/12/06 11:29:48;;;;;;;13.18;8.07;;;;;;;4.41;88.32;100921.59;5049424;28;20099;-74
2022/12/06 11:32:52;;;;;;;12.30;7.57;;;;;;;4.42;88.55;100915.50;5049108;28;20040;-74
2022/12/06 11:36:23;;;;;;;11.15;7.68;;;;;;;4.54;88.72;100918.75;5048812;28;20094;-75
2022/12/06 11:39:29;;;;;;;10.93;7.57;;;;;;;4.76;87.70;100912.22;5028112;28;20044;-74
2022/12/06 11:42:32;;;;;;;14.63;8.27;;;;;;;4.84;87.43;100904.25;5029285;28;20091;-74
2022/12/06 11:45:40;;;;;;;;;;;;;;;4.82;87.01;100908.66;5029598;28;20047;-74
2022/12/06 11:48:43;;;;;;;16.23;10.68;;;;;;;4.86;86.87;100907.69;5029160;28;19923;-73
2022/12/06 11:51:46;;;;;;;11.63;8.23;;;;;;;4.70;87.15;100899.41;5028568;28;20095;-73
2022/12/06 11:55:15;;;;;;;;;;;;;;;4.84;85.68;100906.84;5028533;28;20056;-73
2022/12/06 11:58:36;;;;;;;10.85;7.15;;;;;;;4.66;86.71;100911.56;5029769;28;19920;-74
2022/12/06 12:01:45;;;;;;;15.20;9.85;;;;;;;4.79;86.71;100906.13;5028655;28;20061;-75
2022/12/06 12:04:49;;;;;;;16.70;10.40;;;;;;;4.63;87.19;100909.03;5035941;28;20099;-74
2022/12/06 12:07:55;;;;;;;;;;;;;;;4.33;88.21;100910.53;5047239;28;20140;-73
2022/12/06 12:11:01;;;;;;;16.70;12.20;;;;;;;4.68;87.81;100903.75;5043916;28;19954;-76
2022/12/06 12:14:23;;;;;;;15.02;10.00;;;;;;;4.77;86.53;100907.88;5028035;28;20043;-77
2022/12/06 12:17:30;;;;;;;17.80;12.32;;;;;;;4.79;86.96;100903.53;5029166;28;20045;-76
2022/12/06 12:20:43;;;;;;;17.08;13.57;;;;;;;4.84;86.86;100899.94;5048170;28;20075;-77
2022/12/06 12:23:47;;;;;;;12.75;9.45;;;;;;;4.85;85.81;100904.25;5047504;28;20415;-77
2022/12/06 12:26:50;;;;;;;12.07;9.30;;;;;;;4.82;85.73;100904.31;5048062;28;20086;-78
2022/12/06 12:30:30;;;;;;;;;;;;;;;4.73;87.91;100898.50;5031299;28;20099;-78
2022/12/06 12:33:36;;;;;;;11.07;8.50;;;;;;;4.64;88.57;100899.53;5010065;28;19964;-79
2022/12/06 12:36:50;;;;;;;15.15;9.45;;;;;;;4.85;86.99;100893.00;5028315;28;20036;-77
2022/12/06 12:39:54;;;;;;;17.65;13.15;;;;;;;4.99;86.52;100895.31;5028085;28;20481;-76
2022/12/06 12:43:17;;;;;;;11.77;9.57;;;;;;;5.04;86.58;100898.63;5028067;28;20561;-79
2022/12/06 12:46:24;;;;;;;14.82;10.50;;;;;;;4.99;86.19;100909.09;5028553;28;20091;-79
2022/12/06 12:49:33;;;;;;;17.02;12.38;;;;;;;4.98;85.30;100896.16;5028181;28;20056;-79
2022/12/06 12:52:39;;;;;;;9.77;6.13;;;;;;;4.53;85.77;100899.78;5045453;28;20437;-78
2022/12/06 12:55:44;;;;;;;11.30;6.40;;;;;;;4.50;86.39;100892.06;5045461;28;20454;-80
2022/12/06 12:58:55;;;;;;;12.20;7.97;;;;;;;4.68;86.19;100893.38;5047665;28;20044;-81
2022/12/06 13:02:22;;;;;;;7.85;5.65;;;;;;;4.73;85.64;100894.16;5047527;28;20075;-81
2022/12/06 13:06:15;;;;;;;7.28;5.80;;;;;;;4.88;85.42;100888.63;5046038;28;20059;-79
2022/12/06 13:09:27;;;;;;;10.45;9.35;;;;;;;4.84;84.96;100878.34;5026151;28;20128;-77
2022/12/06 13:12:40;;;;;;;9.02;7.53;;;;;;;4.96;85.05;100885.84;5025784;28;20457;-77
2022/12/06 13:15:51;;;;;;;9.85;7.75;;;;;;;4.69;86.30;100887.34;5027006;28;20099;-78
2022/12/06 13:18:57;;;;;;;7.78;5.88;;;;;;;4.77;85.92;100888.00;5027153;28;20304;-80
2022/12/06 13:22:03;;;;;;;8.63;5.65;;;;;;;4.74;86.04;100884.63;5026702;28;20533;-80
2022/12/06 13:25:09;;;;;;;8.15;5.20;;;;;;;4.71;85.74;100890.72;5027539;28;20107;-79
2022/12/06 13:28:17;;;;;;;7.53;5.53;;;;;;;4.74;85.99;100888.06;5027605;28;20512;-80
2022/12/06 13:31:26;;;;;;;7.53;5.90;;;;;;;4.71;85.71;100888.16;5026763;28;20045;-80
2022/12/06 13:34:44;;;;;;;9.07;6.13;;;;;;;4.35;87.58;100884.63;5026528;28;20130;-78
2022/12/06 13:38:13;;;;;;;8.60;7.00;;;;;;;4.56;87.55;100885.88;5027177;28;20087;-78
2022/12/06 13:42:16;;;;;;;9.95;7.63;;;;;;;4.32;88.13;100888.13;5026660;28;20049;-78
2022/12/06 13:45:01;;;;;;;8.52;6.82;;;;;;;4.39;88.51;100889.69;5026028;28;20100;-79
2022/12/06 13:48:22;;;;;;;10.32;7.53;;;;;;;4.32;88.68;100888.13;5029454;28;20182;-80
2022/12/06 13:51:36;;;;;;;10.77;8.55;;;;;;;4.53;88.17;100892.00;5042980;28;20044;-80
2022/12/06 13:54:40;;;;;;;25.92;17.13;;;;;;;4.46;88.08;100886.97;5038897;28;20608;-78
2022/12/06 13:57:43;;;;;;;;;;;;;;;4.52;87.71;100889.44;5047314;28;20083;-78
2022/12/06 14:00:48;;;;;;;10.80;8.27;;;;;;;4.48;87.29;100885.22;5044711;28;19923;-78
2022/12/06 14:03:55;;;;;;;16.33;11.02;;;;;;;4.57;87.16;100882.44;5030609;28;20530;-78
2022/12/06 14:07:07;;;;;;;10.82;8.50;;;;;;;4.54;87.55;100878.16;5036847;28;20399;-78
2022/12/06 14:10:12;;;;;;;11.07;8.13;;;;;;;4.54;87.94;100887.69;5041802;28;20063;-80
2022/12/06 14:17:40;;;;;;;155.68;80.47;;;;;;;4.46;88.38;100892.16;5049220;28;20525;-78
2022/12/06 14:20:48;;;;;;;19.05;13.38;;;;;;;4.36;88.05;100891.50;5049127;28;20051;-77
2022/12/06 14:23:56;;;;;;;14.27;8.95;;;;;;;4.49;87.57;100894.69;5049889;28;20091;-78
2022/12/06 14:27:19;;;;;;;15.65;12.05;;;;;;;4.70;87.96;100883.00;5050491;28;20078;-78
2022/12/06 14:30:24;;;;;;;12.02;8.85;;;;;;;4.53;87.63;100891.13;5051386;28;20102;-79
2022/12/06 14:33:28;;;;;;;19.05;16.58;;;;;;;4.51;88.14;100882.56;5050823;28;20456;-78
2022/12/06 14:36:32;;;;;;;;;;;;;;;4.52;88.67;100889.44;5045768;28;20118;-79
2022/12/06 14:39:36;;;;;;;10.60;8.55;;;;;;;4.66;88.08;100892.59;5050442;28;20444;-79
2022/12/06 14:43:00;;;;;;;10.98;7.18;;;;;;;4.40;87.45;100886.25;5049428;28;20096;-80
2022/12/06 14:46:14;;;;;;;11.20;8.38;;;;;;;4.54;87.98;100885.94;5050002;28;20136;-80
2022/12/06 14:53:02;;;;;;;11.18;6.68;;;;;;;4.71;88.55;100895.91;5051316;28;20048;-80
2022/12/06 14:56:29;;;;;;;13.38;6.72;;;;;;;4.62;89.04;100893.53;5051356;28;20063;-81
2022/12/06 14:59:34;;;;;;;10.27;6.50;;;;;;;4.78;88.75;100884.53;5049755;28;20555;-80
2022/12/06 15:03:20;;;;;;;;;;;;;;;;;;;;;
2022/12/06 15:06:29;;;;;;;8.48;5.95;;;;;;;4.76;88.14;100882.88;5043472;28;20439;-77
2022/12/06 15:09:44;;;;;;;8.68;5.95;;;;;;;4.75;88.97;100876.81;5030786;28;20040;-80
2022/12/06 15:12:55;;;;;;;7.97;6.13;;;;;;;4.79;88.97;100878.47;5030421;28;20056;-79
2022/12/06 15:16:13;;;;;;;13.02;7.95;;;;;;;4.66;89.60;100877.91;5028796;28;20516;-79
2022/12/06 15:19:19;;;;;;;13.85;9.13;;;;;;;4.75;89.10;100887.19;5028851;28;20098;-77
2022/12/06 15:22:27;;;;;;;8.50;5.95;;;;;;;4.87;87.91;100879.13;5029864;28;20044;-78